Time;durP1;ratioP1;P1;durP2;ratioP2;P2;SDS_P1;SDS_P2;PMS_P1;PMS_P2;Temp;Humidity;BMP_temperature;BMP_pressure;BME280_temperature;BME280_humidity;BME280_pressure;Samples;Min_cycle;Max_cycle;Signal;HPM_P1;HPM_P2
2022/11/01 00:01:23;;;;;;;7.63;3.83;;;;;;;;;;5048556;28;20037;-79
2022/11/01 00:03:48;;;;;;;7.28;2.80;;;;;;;;;;5047973;28;20025;-79
2022/11/01 00:06:14;;;;;;;9.38;3.88;;;;;;;;;;5048481;28;20119;-79
2022/11/01 00:08:39;;;;;;;7.35;3.38;;;;;;;;;;5036821;28;20041;-79
2022/11/01 00:11:10;;;;;;;6.60;3.50;;;;;;;;;;5043813;28;20056;-79
2022/11/01 00:13:36;;;;;;;9.68;3.80;;;;;;;;;;5067273;28;20153;-79
2022/11/01 00:16:01;;;;;;;8.63;3.20;;;;;;;;;;5049788;28;20107;-79
2022/11/01 00:18:26;;;;;;;4.65;2.72;;;;;;;;;;5047556;28;20024;-79
2022/11/01 00:20:52;;;;;;;7.80;2.78;;;;;;;;;;5046609;28;20033;-80
2022/11/01 00:23:17;;;;;;;5.93;3.00;;;;;;;;;;5048055;28;20055;-79
2022/11/01 00:25:43;;;;;;;6.20;3.45;;;;;;;;;;5047095;28;20029;-79
2022/11/01 00:28:08;;;;;;;12.25;3.53;;;;;;;;;;5048756;28;20116;-79
2022/11/01 00:30:38;;;;;;;9.13;3.60;;;;;;;;;;5056571;28;20083;-79
2022/11/01 00:33:03;;;;;;;8.40;3.40;;;;;;;;;;5048112;28;20536;-79
2022/11/01 00:35:30;;;;;;;6.70;3.15;;;;;;;;;;5047768;28;20025;-79
2022/11/01 00:37:57;;;;;;;11.70;3.40;;;;;;;;;;5045523;28;20079;-79
2022/11/01 00:40:22;;;;;;;7.22;3.38;;;;;;;;;;5045035;28;20025;-79
2022/11/01 00:42:48;;;;;;;9.40;3.40;;;;;;;;;;5047633;28;20035;-79
2022/11/01 00:45:13;;;;;;;8.35;3.10;;;;;;;;;;5048028;28;20132;-79
2022/11/01 00:47:38;;;;;;;8.07;3.50;;;;;;;;;;5046156;28;20045;-79
2022/11/01 00:50:04;;;;;;;5.00;2.67;;;;;;;;;;5034091;28;20132;-79
2022/11/01 00:52:29;;;;;;;11.25;3.60;;;;;;;;;;5027457;28;20033;-79
2022/11/01 00:54:55;;;;;;;6.90;3.00;;;;;;;;;;5027545;28;20083;-79
2022/11/01 00:57:20;;;;;;;9.63;2.55;;;;;;;;;;5031648;28;20072;-79
2022/11/01 00:59:45;;;;;;;7.80;2.70;;;;;;;;;;5057667;28;20469;-79
2022/11/01 01:02:11;;;;;;;7.60;2.58;;;;;;;;;;5044595;28;20049;-79
2022/11/01 01:04:40;;;;;;;6.13;2.60;;;;;;;;;;5045428;28;20091;-79
2022/11/01 01:07:05;;;;;;;12.10;2.75;;;;;;;;;;5046253;28;20033;-79
2022/11/01 01:09:31;;;;;;;7.43;2.83;;;;;;;;;;5047329;28;20025;-79
2022/11/01 01:11:58;;;;;;;4.30;2.83;;;;;;;;;;5046958;28;20033;-79
2022/11/01 01:14:23;;;;;;;5.82;2.30;;;;;;;;;;5045869;28;20322;-79
2022/11/01 01:16:48;;;;;;;3.55;2.42;;;;;;;;;;5045879;28;20199;-79
2022/11/01 01:19:14;;;;;;;5.10;2.38;;;;;;;;;;5047027;28;20036;-79
2022/11/01 01:21:39;;;;;;;5.57;2.35;;;;;;;;;;5047492;28;20033;-79
2022/11/01 01:24:05;;;;;;;2.90;1.90;;;;;;;;;;5046428;28;20063;-79
2022/11/01 01:26:30;;;;;;;7.00;2.15;;;;;;;;;;5050992;28;20547;-79
2022/11/01 01:28:55;;;;;;;4.75;2.35;;;;;;;;;;5051746;28;20036;-79
2022/11/01 01:31:21;;;;;;;4.85;1.60;;;;;;;;;;5045718;28;20033;-79
2022/11/01 01:33:46;;;;;;;5.93;2.13;;;;;;;;;;5046997;28;20767;-78
2022/11/01 01:36:12;;;;;;;3.72;1.80;;;;;;;;;;5042623;28;20911;-79
2022/11/01 01:38:37;;;;;;;4.38;1.67;;;;;;;;;;5047052;28;20048;-79
2022/11/01 01:43:46;;;;;;;3.45;1.48;;;;;;;;;;5047218;28;20040;-79
2022/11/01 01:46:12;;;;;;;3.20;1.40;;;;;;;;;;5045292;28;20041;-79
2022/11/01 01:48:43;;;;;;;6.10;1.65;;;;;;;;;;5047407;28;20032;-79
2022/11/01 01:51:13;;;;;;;3.72;1.55;;;;;;;;;;5046527;28;20048;-79
2022/11/01 01:53:48;;;;;;;4.82;1.27;;;;;;;;;;5046405;28;20121;-79
2022/11/01 01:56:22;;;;;;;3.03;1.40;;;;;;;;;;5045014;28;20041;-79
2022/11/01 01:58:57;;;;;;;4.50;1.30;;;;;;;;;;5044276;28;20128;-79
2022/11/01 02:01:23;;;;;;;3.38;1.30;;;;;;;;;;5046016;28;20115;-78
2022/11/01 02:03:49;;;;;;;1.17;1.00;;;;;;;;;;5045007;28;20033;-79
2022/11/01 02:06:17;;;;;;;2.22;1.38;;;;;;;;;;5045777;28;20439;-79
2022/11/01 02:08:46;;;;;;;3.83;1.40;;;;;;;;;;5047281;28;20051;-78
2022/11/01 02:11:13;;;;;;;6.70;1.27;;;;;;;;;;5045260;28;20044;-79
2022/11/01 02:13:38;;;;;;;3.58;1.55;;;;;;;;;;5045044;28;20044;-79
2022/11/01 02:16:12;;;;;;;2.40;0.90;;;;;;;;;;5046613;28;20032;-79
2022/11/01 02:18:43;;;;;;;3.05;0.80;;;;;;;;;;5046203;28;20527;-79
2022/11/01 02:21:29;;;;;;;2.67;0.90;;;;;;;;;;5042302;28;20045;-79
2022/11/01 02:24:20;;;;;;;2.78;1.00;;;;;;;;;;5035561;28;20149;-79
2022/11/01 02:27:06;;;;;;;1.85;0.82;;;;;;;;;;5025361;28;20533;-79
2022/11/01 02:30:04;;;;;;;1.33;0.63;;;;;;;;;;5025243;28;20279;-79
2022/11/01 02:32:53;;;;;;;2.10;0.73;;;;;;;;;;5025187;28;20044;-79
2022/11/01 02:35:38;;;;;;;1.58;1.08;;;;;;;;;;5026509;28;20053;-79
2022/11/01 02:38:13;;;;;;;3.70;1.00;;;;;;;;;;5029740;28;20584;-79
2022/11/01 02:40:53;;;;;;;1.70;1.00;;;;;;;;;;5046274;28;20094;-79
2022/11/01 02:43:24;;;;;;;2.58;0.70;;;;;;;;;;5046590;28;20182;-79
2022/11/01 02:45:49;;;;;;;1.80;1.02;;;;;;;;;;5044631;28;20052;-79
2022/11/01 02:48:19;;;;;;;2.05;0.82;;;;;;;;;;5045354;28;20025;-79
2022/11/01 02:50:52;;;;;;;0.82;0.80;;;;;;;;;;5045749;28;20044;-79
2022/11/01 02:53:18;;;;;;;1.60;0.98;;;;;;;;;;5035257;28;20706;-79
2022/11/01 02:55:43;;;;;;;1.25;0.90;;;;;;;;;;5026640;28;20550;-79
2022/11/01 02:58:17;;;;;;;3.10;1.20;;;;;;;;;;5024700;28;20136;-79
2022/11/01 03:00:44;;;;;;;1.80;0.85;;;;;;;;;;5025356;28;20090;-79
2022/11/01 03:03:15;;;;;;;5.07;0.95;;;;;;;;;;5033650;28;20029;-79
2022/11/01 03:06:08;;;;;;;1.92;0.93;;;;;;;;;;5048851;28;20484;-79
2022/11/01 03:08:39;;;;;;;3.10;1.05;;;;;;;;;;5047174;28;20036;-79
2022/11/01 03:11:18;;;;;;;6.40;1.13;;;;;;;;;;5048959;28;20529;-79
2022/11/01 03:13:43;;;;;;;1.75;0.90;;;;;;;;;;5048656;28;20060;-79
2022/11/01 03:16:34;;;;;;;2.78;1.10;;;;;;;;;;5047801;28;20057;-79
2022/11/01 03:19:05;;;;;;;1.70;1.00;;;;;;;;;;5048249;28;20024;-79
2022/11/01 03:21:36;;;;;;;3.67;0.85;;;;;;;;;;5050038;28;20509;-79
2022/11/01 03:24:25;;;;;;;2.83;1.23;;;;;;;;;;5047081;28;20403;-79
2022/11/01 03:27:06;;;;;;;1.42;0.73;;;;;;;;;;5049766;28;20584;-79
2022/11/01 03:29:33;;;;;;;1.73;0.90;;;;;;;;;;5048194;28;20044;-79
2022/11/01 03:32:01;;;;;;;2.15;0.80;;;;;;;;;;5048076;28;20041;-79
2022/11/01 03:34:28;;;;;;;3.15;0.82;;;;;;;;;;5048209;28;20029;-79
2022/11/01 03:37:01;;;;;;;3.58;0.90;;;;;;;;;;5048327;28;20652;-79
2022/11/01 03:39:32;;;;;;;3.55;0.75;;;;;;;;;;5053719;28;20025;-79
2022/11/01 03:42:03;;;;;;;4.53;0.77;;;;;;;;;;5047679;28;20467;-79
2022/11/01 03:44:38;;;;;;;1.65;0.65;;;;;;;;;;5048127;28;20032;-79
2022/11/01 03:47:04;;;;;;;2.72;0.73;;;;;;;;;;5047191;28;20029;-79
2022/11/01 03:49:29;;;;;;;2.08;0.75;;;;;;;;;;5049552;28;20039;-79
2022/11/01 03:51:54;;;;;;;2.35;0.73;;;;;;;;;;5048922;28;20052;-79
2022/11/01 03:54:20;;;;;;;1.65;0.70;;;;;;;;;;5048196;28;20067;-79
2022/11/01 03:56:45;;;;;;;3.10;0.73;;;;;;;;;;5049173;28;20037;-79
2022/11/01 03:59:11;;;;;;;4.43;0.80;;;;;;;;;;5047572;28;20453;-79
2022/11/01 04:01:36;;;;;;;2.50;0.60;;;;;;;;;;5048692;28;20079;-79
2022/11/01 04:04:02;;;;;;;1.83;0.80;;;;;;;;;;5048615;28;20033;-79
2022/11/01 04:06:27;;;;;;;3.33;0.73;;;;;;;;;;5049064;28;20048;-80
2022/11/01 04:08:52;;;;;;;2.05;0.85;;;;;;;;;;5048782;28;20033;-79
2022/11/01 04:11:18;;;;;;;4.93;0.98;;;;;;;;;;5048312;28;20036;-79
2022/11/01 04:13:43;;;;;;;2.53;0.88;;;;;;;;;;5048443;28;20039;-79
2022/11/01 04:21:41;;;;;;;4.65;0.70;;;;;;;;;;5048421;28;20112;-80
2022/11/01 04:24:08;;;;;;;3.30;0.70;;;;;;;;;;5047515;28;20119;-79
2022/11/01 04:26:34;;;;;;;2.80;0.80;;;;;;;;;;5048103;28;20061;-80
2022/11/01 04:28:59;;;;;;;2.58;0.77;;;;;;;;;;5046343;28;20115;-79
2022/11/01 04:31:27;;;;;;;4.97;0.98;;;;;;;;;;5047380;28;20090;-79
2022/11/01 04:33:54;;;;;;;3.25;0.70;;;;;;;;;;5046641;28;20025;-79
2022/11/01 04:36:19;;;;;;;2.33;0.75;;;;;;;;;;5047268;28;20490;-79
2022/11/01 04:38:48;;;;;;;2.42;0.75;;;;;;;;;;5045559;28;20022;-79
2022/11/01 04:41:15;;;;;;;2.22;0.70;;;;;;;;;;5045646;28;20688;-79
2022/11/01 04:43:40;;;;;;;1.42;0.73;;;;;;;;;;5039102;28;20029;-79
2022/11/01 04:46:06;;;;;;;3.45;0.73;;;;;;;;;;5027749;28;20076;-79
2022/11/01 04:48:31;;;;;;;1.73;0.68;;;;;;;;;;5042586;28;20013;-79
2022/11/01 04:50:58;;;;;;;2.75;0.70;;;;;;;;;;5037932;28;20754;-80
2022/11/01 04:53:24;;;;;;;0.88;0.47;;;;;;;;;;5038202;28;20029;-79
2022/11/01 04:55:49;;;;;;;1.65;0.60;;;;;;;;;;5045949;28;20037;-80
2022/11/01 04:58:14;;;;;;;4.40;0.73;;;;;;;;;;5046762;28;20033;-80
2022/11/01 05:00:42;;;;;;;2.60;0.75;;;;;;;;;;5045275;28;20608;-80
2022/11/01 05:03:09;;;;;;;2.35;0.90;;;;;;;;;;5045250;28;20033;-79
2022/11/01 05:05:35;;;;;;;5.95;0.93;;;;;;;;;;5048134;28;20054;-79
2022/11/01 05:08:06;;;;;;;3.65;0.65;;;;;;;;;;5045964;28;20025;-79
2022/11/01 05:10:33;;;;;;;4.25;0.90;;;;;;;;;;5052820;28;20122;-79
2022/11/01 05:12:59;;;;;;;2.30;0.80;;;;;;;;;;5046691;28;20554;-79
2022/11/01 05:15:25;;;;;;;2.20;0.70;;;;;;;;;;5049677;28;20494;-80
2022/11/01 05:17:50;;;;;;;4.72;0.68;;;;;;;;;;5047426;28;20040;-79
2022/11/01 05:20:15;;;;;;;5.10;0.98;;;;;;;;;;5047204;28;20029;-80
2022/11/01 05:22:41;;;;;;;4.38;0.82;;;;;;;;;;5045244;28;20076;-79
2022/11/01 05:25:08;;;;;;;2.47;0.77;;;;;;;;;;5062670;28;20028;-80
2022/11/01 05:27:34;;;;;;;6.63;0.73;;;;;;;;;;5048996;28;20118;-79
2022/11/01 05:29:59;;;;;;;1.90;0.77;;;;;;;;;;5027711;28;20040;-80
2022/11/01 05:32:25;;;;;;;2.67;0.70;;;;;;;;;;5030847;28;20029;-79
2022/11/01 05:34:50;;;;;;;2.42;0.80;;;;;;;;;;5039647;28;20043;-80
2022/11/01 05:37:15;;;;;;;9.65;1.20;;;;;;;;;;5043482;28;20037;-80
2022/11/01 05:39:41;;;;;;;7.95;0.90;;;;;;;;;;5044374;28;20399;-79
2022/11/01 05:42:06;;;;;;;5.30;1.25;;;;;;;;;;5045577;28;20034;-80
2022/11/01 05:44:32;;;;;;;5.70;2.00;;;;;;;;;;5045795;28;20041;-79
2022/11/01 05:46:57;;;;;;;1.90;0.80;;;;;;;;;;5046900;28;20037;-80
2022/11/01 05:49:23;;;;;;;2.95;0.82;;;;;;;;;;5046712;28;20033;-79
2022/11/01 05:51:49;;;;;;;4.10;0.98;;;;;;;;;;5046875;28;20051;-80
2022/11/01 05:54:14;;;;;;;0.88;0.40;;;;;;;;;;5047303;28;20017;-80
2022/11/01 05:56:39;;;;;;;6.03;1.08;;;;;;;;;;5050080;28;20060;-79
2022/11/01 05:59:04;;;;;;;3.50;0.77;;;;;;;;;;5064467;28;20038;-80
2022/11/01 06:01:30;;;;;;;2.28;0.68;;;;;;;;;;5062239;28;20120;-79
2022/11/01 06:04:00;;;;;;;4.68;0.90;;;;;;;;;;5065086;28;20106;-80
2022/11/01 06:06:27;;;;;;;3.42;0.70;;;;;;;;;;5053548;28;20027;-80
2022/11/01 06:08:52;;;;;;;7.10;0.93;;;;;;;;;;5054329;28;20036;-80
2022/11/01 06:11:17;;;;;;;3.92;0.70;;;;;;;;;;5042731;28;20072;-80
2022/11/01 06:13:42;;;;;;;3.22;0.90;;;;;;;;;;5032401;28;20469;-80
2022/11/01 06:16:08;;;;;;;5.45;0.85;;;;;;;;;;5044982;28;20029;-80
2022/11/01 06:18:33;;;;;;;5.25;0.93;;;;;;;;;;5047336;28;20049;-80
2022/11/01 06:20:59;;;;;;;5.55;0.73;;;;;;;;;;5045183;28;20136;-80
2022/11/01 06:23:24;;;;;;;3.78;1.13;;;;;;;;;;5045239;28;20037;-81
2022/11/01 06:25:49;;;;;;;7.68;1.05;;;;;;;;;;5045326;28;20144;-80
2022/11/01 06:28:15;;;;;;;8.10;1.30;;;;;;;;;;5039896;28;20537;-80
2022/11/01 06:30:42;;;;;;;3.30;0.82;;;;;;;;;;5045736;28;20383;-80
2022/11/01 06:33:08;;;;;;;5.32;1.30;;;;;;;;;;5045380;28;20037;-80
2022/11/01 06:35:34;;;;;;;4.32;0.93;;;;;;;;;;5044923;28;20040;-80
2022/11/01 06:38:05;;;;;;;6.45;1.00;;;;;;;;;;5053407;28;20063;-80
2022/11/01 06:40:34;;;;;;;2.25;0.75;;;;;;;;;;5049328;28;20139;-79
2022/11/01 06:43:00;;;;;;;9.95;0.98;;;;;;;;;;5048092;28;20025;-80
2022/11/01 06:45:25;;;;;;;2.20;0.73;;;;;;;;;;5049579;28;20048;-78
2022/11/01 06:47:51;;;;;;;4.88;0.82;;;;;;;;;;5050356;28;20526;-78
2022/11/01 06:50:16;;;;;;;3.60;0.80;;;;;;;;;;5063500;28;20469;-78
2022/11/01 06:52:41;;;;;;;7.78;1.10;;;;;;;;;;5068971;28;20033;-78
2022/11/01 06:55:07;;;;;;;2.72;1.13;;;;;;;;;;5068956;28;20032;-78
2022/11/01 06:57:32;;;;;;;3.55;0.90;;;;;;;;;;5060316;28;20067;-78
2022/11/01 06:59:58;;;;;;;3.88;1.27;;;;;;;;;;5049687;28;20040;-78
2022/11/01 07:02:24;;;;;;;4.07;1.25;;;;;;;;;;5047558;28;20025;-78
2022/11/01 07:04:50;;;;;;;7.32;1.23;;;;;;;;;;5047842;28;20029;-81
2022/11/01 07:07:15;;;;;;;7.00;1.20;;;;;;;;;;5048110;28;20068;-84
2022/11/01 07:09:41;;;;;;;7.70;1.02;;;;;;;;;;5050092;28;20021;-83
2022/11/01 07:12:06;;;;;;;4.30;1.10;;;;;;;;;;5047722;28;20025;-82
2022/11/01 07:14:31;;;;;;;8.90;1.13;;;;;;;;;;5050071;28;20037;-82
2022/11/01 07:16:57;;;;;;;5.82;1.10;;;;;;;;;;5048446;28;20414;-82
2022/11/01 07:19:22;;;;;;;8.90;1.27;;;;;;;;;;5046033;28;20426;-84
2022/11/01 07:21:48;;;;;;;4.72;0.90;;;;;;;;;;5048012;28;20052;-85
2022/11/01 07:24:13;;;;;;;7.63;1.10;;;;;;;;;;5048977;28;20036;-84
2022/11/01 07:26:39;;;;;;;5.10;1.08;;;;;;;;;;5048322;28;20033;-84
2022/11/01 07:29:04;;;;;;;5.75;1.40;;;;;;;;;;5063257;28;20115;-84
2022/11/01 07:31:32;;;;;;;4.25;1.00;;;;;;;;;;5046936;28;20049;-83
2022/11/01 07:33:57;;;;;;;2.80;0.95;;;;;;;;;;5045726;28;20025;-84
2022/11/01 07:36:23;;;;;;;3.85;1.52;;;;;;;;;;5032479;28;20033;-84
2022/11/01 07:38:48;;;;;;;4.93;1.05;;;;;;;;;;5062558;28;20056;-83
2022/11/01 07:41:14;;;;;;;7.72;1.08;;;;;;;;;;5031108;28;20102;-83
2022/11/01 07:43:39;;;;;;;6.40;1.27;;;;;;;;;;5041943;28;20648;-83
2022/11/01 07:46:06;;;;;;;3.03;0.98;;;;;;;;;;5044552;28;20535;-83
2022/11/01 07:48:32;;;;;;;5.50;0.80;;;;;;;;;;5040183;28;20064;-82
2022/11/01 07:50:58;;;;;;;12.90;1.15;;;;;;;;;;5043868;28;20506;-82
2022/11/01 07:53:24;;;;;;;7.43;1.05;;;;;;;;;;5043642;28;20056;-82
2022/11/01 07:55:49;;;;;;;6.43;1.02;;;;;;;;;;5046680;28;20581;-82
2022/11/01 07:58:15;;;;;;;3.83;1.00;;;;;;;;;;5043025;28;20049;-82
2022/11/01 08:00:42;;;;;;;10.88;1.48;;;;;;;;;;5057354;28;20032;-73
2022/11/01 08:03:11;;;;;;;5.70;1.10;;;;;;;;;;5049433;28;20090;-71
2022/11/01 08:05:37;;;;;;;4.38;0.85;;;;;;;;;;5048878;28;20609;-70
2022/11/01 08:08:04;;;;;;;9.10;1.25;;;;;;;;;;5044455;28;20502;-77
2022/11/01 08:10:30;;;;;;;9.40;1.05;;;;;;;;;;5043311;28;20090;-73
2022/11/01 08:13:19;;;;;;;10.13;1.70;;;;;;;;;;5041913;28;20119;-70
2022/11/01 08:15:46;;;;;;;3.10;1.20;;;;;;;;;;5041545;28;20597;-75
2022/11/01 08:18:12;;;;;;;4.90;1.15;;;;;;;;;;5041518;28;20075;-72
2022/11/01 08:20:37;;;;;;;6.25;1.38;;;;;;;;;;5040549;28;20041;-75
2022/11/01 08:23:03;;;;;;;6.43;1.10;;;;;;;;;;5040991;28;20059;-71
2022/11/01 08:25:29;;;;;;;6.38;1.15;;;;;;;;;;5034312;28;20075;-73
2022/11/01 08:28:00;;;;;;;5.20;1.00;;;;;;;;;;5041413;28;20075;-76
2022/11/01 08:30:25;;;;;;;7.78;1.10;;;;;;;;;;5044019;28;20028;-71
2022/11/01 08:32:57;;;;;;;6.35;1.00;;;;;;;;;;5043542;28;20036;-68
2022/11/01 08:35:23;;;;;;;5.05;1.20;;;;;;;;;;5045584;28;20036;-69
2022/11/01 08:37:49;;;;;;;5.20;0.90;;;;;;;;;;5047692;28;20044;-77
2022/11/01 08:40:15;;;;;;;5.85;1.10;;;;;;;;;;5048732;28;20040;-82
2022/11/01 08:42:40;;;;;;;4.78;1.42;;;;;;;;;;5048590;28;20021;-82
2022/11/01 08:45:06;;;;;;;6.53;1.02;;;;;;;;;;5044706;28;20052;-81
2022/11/01 08:47:31;;;;;;;8.00;1.10;;;;;;;;;;5048431;28;20037;-82
2022/11/01 08:49:56;;;;;;;4.32;1.17;;;;;;;;;;5045363;28;20132;-81
2022/11/01 08:52:22;;;;;;;1.73;0.75;;;;;;;;;;5043024;28;20464;-82
2022/11/01 08:54:47;;;;;;;7.00;1.25;;;;;;;;;;5048837;28;20095;-82
2022/11/01 08:57:14;;;;;;;5.90;1.17;;;;;;;;;;5048849;28;20437;-80
2022/11/01 08:59:40;;;;;;;13.05;1.42;;;;;;;;;;5045969;28;20036;-84
2022/11/01 09:02:09;;;;;;;4.53;0.90;;;;;;;;;;5047965;28;20033;-83
2022/11/01 09:04:35;;;;;;;6.13;1.13;;;;;;;;;;5045914;28;20037;-84
2022/11/01 09:07:00;;;;;;;6.78;0.85;;;;;;;;;;5047866;28;20083;-84
2022/11/01 09:09:25;;;;;;;6.43;1.02;;;;;;;;;;5037289;28;20033;-81
2022/11/01 09:11:51;;;;;;;7.35;1.30;;;;;;;;;;5038821;28;20064;-81
2022/11/01 09:14:17;;;;;;;6.57;1.00;;;;;;;;;;5049638;28;20041;-82
2022/11/01 09:16:42;;;;;;;5.07;1.10;;;;;;;;;;5046169;28;20503;-82
2022/11/01 09:19:07;;;;;;;9.50;1.23;;;;;;;;;;5047020;28;20059;-82
2022/11/01 09:21:32;;;;;;;7.03;1.25;;;;;;;;;;5047266;28;20099;-81
2022/11/01 09:23:58;;;;;;;4.80;1.45;;;;;;;;;;5046418;28;20060;-82
2022/11/01 09:26:26;;;;;;;4.78;1.02;;;;;;;;;;5046272;28;20033;-81
2022/11/01 09:28:52;;;;;;;6.97;1.13;;;;;;;;;;5047097;28;20061;-81
2022/11/01 09:31:18;;;;;;;7.53;1.17;;;;;;;;;;5046500;28;20025;-81
2022/11/01 09:33:43;;;;;;;3.92;1.05;;;;;;;;;;5046355;28;20498;-81
2022/11/01 09:36:08;;;;;;;6.05;1.13;;;;;;;;;;5047604;28;20033;-81
2022/11/01 09:38:34;;;;;;;6.03;1.15;;;;;;;;;;5046333;28;20048;-81
2022/11/01 09:41:13;;;;;;;5.00;0.80;;;;;;;;;;5047305;28;20033;-81
2022/11/01 09:43:41;;;;;;;6.15;1.35;;;;;;;;;;5044318;28;20090;-81
2022/11/01 09:46:13;;;;;;;12.13;1.50;;;;;;;;;;5051515;28;20112;-82
2022/11/01 09:48:40;;;;;;;11.70;1.63;;;;;;;;;;5029512;28;20025;-82
2022/11/01 09:51:13;;;;;;;6.32;1.23;;;;;;;;;;5048898;28;20021;-83
2022/11/01 09:53:40;;;;;;;4.18;1.13;;;;;;;;;;5047981;28;20041;-84
2022/11/01 09:56:13;;;;;;;10.50;1.23;;;;;;;;;;5046521;28;20033;-83
2022/11/01 09:58:44;;;;;;;8.45;1.10;;;;;;;;;;5042969;28;20063;-83
2022/11/01 10:01:21;;;;;;;6.40;0.98;;;;;;;;;;5045233;28;20044;-83
2022/11/01 10:03:53;;;;;;;11.48;1.10;;;;;;;;;;5024760;28;20034;-83
2022/11/01 10:06:26;;;;;;;2.90;0.90;;;;;;;;;;5034726;28;20028;-68
2022/11/01 10:09:21;;;;;;;3.15;0.82;;;;;;;;;;5043060;28;20137;-73
2022/11/01 10:12:12;;;;;;;5.68;1.30;;;;;;;;;;5028941;28;20040;-68
2022/11/01 10:14:53;;;;;;;7.97;1.20;;;;;;;;;;5035372;28;20159;-76
2022/11/01 10:17:37;;;;;;;6.60;1.25;;;;;;;;;;5046932;28;20033;-76
2022/11/01 10:20:04;;;;;;;5.57;1.20;;;;;;;;;;5042523;28;20044;-76
2022/11/01 10:22:34;;;;;;;6.35;1.10;;;;;;;;;;5050507;28;20049;-76
2022/11/01 10:25:22;;;;;;;8.48;1.00;;;;;;;;;;5049293;28;20041;-76
2022/11/01 10:28:09;;;;;;;5.63;1.10;;;;;;;;;;5041886;28;20045;-75
2022/11/01 10:30:45;;;;;;;6.40;1.13;;;;;;;;;;5049737;28;20104;-76
2022/11/01 10:33:28;;;;;;;7.70;1.20;;;;;;;;;;5049983;28;20021;-76
2022/11/01 10:36:13;;;;;;;7.35;1.25;;;;;;;;;;5049467;28;20033;-75
2022/11/01 10:39:17;;;;;;;11.02;1.33;;;;;;;;;;5050023;28;20128;-75
2022/11/01 10:41:52;;;;;;;11.07;1.40;;;;;;;;;;5048298;28;20056;-75
2022/11/01 10:44:29;;;;;;;7.70;1.23;;;;;;;;;;5044608;28;20033;-76
2022/11/01 10:46:57;;;;;;;12.13;1.35;;;;;;;;;;5051668;28;20041;-76
2022/11/01 10:49:27;;;;;;;2.30;1.20;;;;;;;;;;5028728;28;20038;-75
2022/11/01 10:51:59;;;;;;;8.32;1.35;;;;;;;;;;5029593;28;20506;-75
2022/11/01 10:54:28;;;;;;;5.63;1.25;;;;;;;;;;5028340;28;20056;-76
2022/11/01 10:56:58;;;;;;;8.93;1.00;;;;;;;;;;5035784;28;20035;-75
2022/11/01 10:59:38;;;;;;;7.85;1.33;;;;;;;;;;5043933;28;20450;-76
2022/11/01 11:02:15;;;;;;;7.55;0.93;;;;;;;;;;5051378;28;20041;-76
2022/11/01 11:04:40;;;;;;;3.67;0.95;;;;;;;;;;5049561;28;20572;-76
2022/11/01 11:07:12;;;;;;;4.07;1.35;;;;;;;;;;5049957;28;20049;-76
2022/11/01 11:09:37;;;;;;;3.25;0.80;;;;;;;;;;5047267;28;20029;-75
2022/11/01 11:12:11;;;;;;;5.32;1.30;;;;;;;;;;5049463;28;20032;-75
2022/11/01 11:14:39;;;;;;;12.93;4.38;;;;;;;;;;5047724;28;20067;-75
2022/11/01 11:17:16;;;;;;;3.88;1.75;;;;;;;;;;5047871;28;20573;-75
2022/11/01 11:19:45;;;;;;;10.38;1.55;;;;;;;;;;5046369;28;20111;-75
2022/11/01 11:22:12;;;;;;;4.13;1.15;;;;;;;;;;5047273;28;20044;-75
2022/11/01 11:24:39;;;;;;;6.00;1.10;;;;;;;;;;5047594;28;20509;-76
2022/11/01 11:27:32;;;;;;;7.63;2.30;;;;;;;;;;5049425;28;20025;-75
2022/11/01 11:30:06;;;;;;;4.07;0.88;;;;;;;;;;5046824;28;20057;-75
2022/11/01 11:32:34;;;;;;;2.90;1.02;;;;;;;;;;5049602;28;20124;-75
2022/11/01 11:35:04;;;;;;;6.32;1.58;;;;;;;;;;5041716;28;20502;-75
2022/11/01 11:37:33;;;;;;;6.00;1.15;;;;;;;;;;5039458;28;20047;-75
2022/11/01 11:40:05;;;;;;;5.60;0.73;;;;;;;;;;5045629;28;20038;-75
2022/11/01 11:42:32;;;;;;;6.68;1.00;;;;;;;;;;5040126;28;20064;-75
2022/11/01 11:45:36;;;;;;;9.43;1.45;;;;;;;;;;5042255;28;20016;-75
2022/11/01 11:48:19;;;;;;;7.03;1.15;;;;;;;;;;5006350;28;20080;-75
2022/11/01 11:50:44;;;;;;;4.68;0.95;;;;;;;;;;4996134;28;20069;-75
2022/11/01 11:53:22;;;;;;;11.52;1.30;;;;;;;;;;5023824;28;20150;-75
2022/11/01 11:55:56;;;;;;;3.67;1.35;;;;;;;;;;5056384;28;20044;-75
2022/11/01 11:58:49;;;;;;;4.75;1.40;;;;;;;;;;5067677;28;20037;-75
2022/11/01 12:01:20;;;;;;;6.82;1.38;;;;;;;;;;5065649;28;20090;-75
2022/11/01 12:03:57;;;;;;;11.20;1.25;;;;;;;;;;5045974;28;20406;-75
2022/11/01 12:06:25;;;;;;;3.47;0.98;;;;;;;;;;5048526;28;20123;-75
2022/11/01 12:08:55;;;;;;;7.65;1.42;;;;;;;;;;5046810;28;20784;-76
2022/11/01 12:11:23;;;;;;;3.45;0.82;;;;;;;;;;5046518;28;20773;-75
2022/11/01 12:14:04;;;;;;;5.15;0.98;;;;;;;;;;5039394;28;20115;-75
2022/11/01 12:16:38;;;;;;;3.45;1.05;;;;;;;;;;5042115;28;20041;-75
2022/11/01 12:19:05;;;;;;;3.25;0.88;;;;;;;;;;5033796;28;20535;-75
2022/11/01 12:21:37;;;;;;;5.65;1.05;;;;;;;;;;5043269;28;20060;-75
2022/11/01 12:24:16;;;;;;;6.90;1.13;;;;;;;;;;5047555;28;20410;-75
2022/11/01 12:26:43;;;;;;;7.13;1.42;;;;;;;;;;5047502;28;20072;-75
2022/11/01 12:29:27;;;;;;;5.43;1.08;;;;;;;;;;5047167;28;20040;-75
2022/11/01 12:31:56;;;;;;;5.97;0.90;;;;;;;;;;5048027;28;20540;-75
2022/11/01 12:34:29;;;;;;;2.75;0.95;;;;;;;;;;5044860;28;20033;-76
2022/11/01 12:37:05;;;;;;;7.85;1.33;;;;;;;;;;5047733;28;20400;-75
2022/11/01 12:39:30;;;;;;;5.57;0.80;;;;;;;;;;5043970;28;20119;-76
2022/11/01 12:41:59;;;;;;;3.50;1.00;;;;;;;;;;5043111;28;20170;-76
2022/11/01 12:44:36;;;;;;;5.47;0.95;;;;;;;;;;5046127;28;20037;-76
2022/11/01 12:47:13;;;;;;;4.35;0.95;;;;;;;;;;5038754;28;20075;-76
2022/11/01 12:49:51;;;;;;;7.20;1.02;;;;;;;;;;5036576;28;20556;-76
2022/11/01 12:52:28;;;;;;;2.28;0.82;;;;;;;;;;5034322;28;20144;-76
2022/11/01 12:55:14;;;;;;;7.45;1.38;;;;;;;;;;5055987;28;20068;-76
2022/11/01 12:57:39;;;;;;;8.23;1.65;;;;;;;;;;5046029;28;20028;-77
2022/11/01 13:00:06;;;;;;;9.95;1.42;;;;;;;;;;5045790;28;20434;-76
2022/11/01 13:02:54;;;;;;;8.30;1.20;;;;;;;;;;5045595;28;20522;-75
2022/11/01 13:05:45;;;;;;;15.02;1.70;;;;;;;;;;5019774;28;20804;-76
2022/11/01 13:08:20;;;;;;;3.63;0.90;;;;;;;;;;4987118;28;20094;-76
2022/11/01 13:10:46;;;;;;;9.90;1.45;;;;;;;;;;5009204;28;20670;-75
2022/11/01 13:13:45;;;;;;;5.97;1.00;;;;;;;;;;5043008;28;20073;-76
2022/11/01 13:16:38;;;;;;;6.70;1.15;;;;;;;;;;5030172;28;20052;-75
2022/11/01 13:19:11;;;;;;;4.97;0.80;;;;;;;;;;5037880;28;20041;-75
2022/11/01 13:21:52;;;;;;;5.10;0.90;;;;;;;;;;5036527;28;20035;-76
2022/11/01 13:24:29;;;;;;;4.68;1.05;;;;;;;;;;5045409;28;20025;-76
2022/11/01 13:26:57;;;;;;;9.10;2.90;;;;;;;;;;5046682;28;20048;-76
2022/11/01 13:29:34;;;;;;;10.80;5.63;;;;;;;;;;5046031;28;20123;-75
2022/11/01 13:32:13;;;;;;;4.68;1.10;;;;;;;;;;5046524;28;20040;-75
2022/11/01 13:35:00;;;;;;;4.20;1.00;;;;;;;;;;5041792;28;20092;-75
2022/11/01 13:37:35;;;;;;;7.40;1.85;;;;;;;;;;5038536;28;20047;-75
2022/11/01 13:40:22;;;;;;;6.60;1.40;;;;;;;;;;5028927;28;20441;-75
2022/11/01 13:42:54;;;;;;;5.32;1.08;;;;;;;;;;5030057;28;20064;-75
2022/11/01 13:45:37;;;;;;;3.28;1.33;;;;;;;;;;5041493;28;20076;-76
2022/11/01 13:48:05;;;;;;;;;;;;;;;;;;5034227;28;20500;-76
2022/11/01 13:50:36;;;;;;;5.38;0.85;;;;;;;;;;5037320;28;20528;-76
2022/11/01 13:53:22;;;;;;;9.52;1.10;;;;;;;;;;5037681;28;20421;-76
2022/11/01 13:56:19;;;;;;;6.13;1.13;;;;;;;;;;5034163;28;20026;-76
2022/11/01 13:58:45;;;;;;;6.53;1.48;;;;;;;;;;5044177;28;20049;-75
2022/11/01 14:01:34;;;;;;;3.50;1.13;;;;;;;;;;5038875;28;20059;-76
2022/11/01 14:04:15;;;;;;;4.15;1.02;;;;;;;;;;5041325;28;20763;-76
2022/11/01 14:06:47;;;;;;;11.80;1.05;;;;;;;;;;5043761;28;20033;-75
2022/11/01 14:09:22;;;;;;;6.60;1.63;;;;;;;;;;5046147;28;20086;-76
2022/11/01 14:11:50;;;;;;;7.45;1.00;;;;;;;;;;5045328;28;20112;-76
2022/11/01 14:14:31;;;;;;;4.97;1.08;;;;;;;;;;5042041;28;20045;-76
2022/11/01 14:17:14;;;;;;;7.13;1.00;;;;;;;;;;5036877;28;20061;-76
2022/11/01 14:19:41;;;;;;;;;;;;;;;;;;5028154;28;20041;-75
2022/11/01 14:22:29;;;;;;;5.78;0.90;;;;;;;;;;5022176;28;19944;-76
2022/11/01 14:25:00;;;;;;;5.55;1.27;;;;;;;;;;5025851;28;20108;-76
2022/11/01 14:27:34;;;;;;;6.00;1.25;;;;;;;;;;5029960;28;20597;-76
2022/11/01 14:30:01;;;;;;;5.80;0.90;;;;;;;;;;5045756;28;20023;-77
2022/11/01 14:32:29;;;;;;;4.20;1.10;;;;;;;;;;5063204;28;20036;-76
2022/11/01 14:34:58;;;;;;;7.20;1.42;;;;;;;;;;5047138;28;20038;-76
2022/11/01 14:37:26;;;;;;;7.07;1.02;;;;;;;;;;5031318;28;20033;-76
2022/11/01 14:39:52;;;;;;;3.67;1.02;;;;;;;;;;5022596;28;20041;-76
2022/11/01 14:42:25;;;;;;;8.82;1.23;;;;;;;;;;5023233;28;20083;-76
2022/11/01 14:48:23;;;;;;;5.63;1.27;;;;;;;;;;5037285;28;20045;-76
2022/11/01 14:51:43;;;;;;;5.05;1.20;;;;;;;;;;5037816;28;20114;-76
2022/11/01 14:54:51;;;;;;;6.35;1.02;;;;;;;;;;5022471;28;20042;-76
2022/11/01 14:57:33;;;;;;;3.10;1.02;;;;;;;;;;5022854;28;20048;-76
2022/11/01 15:02:27;;;;;;;4.15;0.88;;;;;;;;;;5016577;28;20532;-76
2022/11/01 15:05:01;;;;;;;5.75;1.10;;;;;;;;;;5034894;28;20072;-76
2022/11/01 15:09:57;;;;;;;4.93;1.30;;;;;;;;;;5044092;28;20098;-76
2022/11/01 15:12:26;;;;;;;4.88;1.00;;;;;;;;;;5046104;28;20406;-76
2022/11/01 15:14:55;;;;;;;2.92;0.80;;;;;;;;;;5046293;28;20048;-76
2022/11/01 15:17:25;;;;;;;5.15;1.15;;;;;;;;;;5046274;28;20549;-76
2022/11/01 15:19:53;;;;;;;4.53;1.10;;;;;;;;;;5048668;28;20037;-76